Time;durP1;ratioP1;P1;durP2;ratioP2;P2;SDS_P1;SDS_P2;PMS_P1;PMS_P2;Temp;Humidity;BMP_temperature;BMP_pressure;BME280_temperature;BME280_humidity;BME280_pressure;Samples;Min_cycle;Max_cycle;Signal;HPM_P1;HPM_P2
2020/12/06 00:00:09;;;;;;;18.45;8.63;;;2.10;99.90;;;;;;5039800;28;20124;-79
2020/12/06 00:02:35;;;;;;;23.00;10.32;;;2.10;99.90;;;;;;5057692;28;20045;-78
2020/12/06 00:05:03;;;;;;;19.83;8.88;;;2.10;99.90;;;;;;5056931;28;20060;-78
2020/12/06 00:07:28;;;;;;;19.80;10.05;;;2.10;99.90;;;;;;5057980;28;20025;-78
2020/12/06 00:09:54;;;;;;;22.05;9.70;;;2.00;99.90;;;;;;5055708;28;20094;-78
2020/12/06 00:12:20;;;;;;;18.95;8.85;;;2.00;99.90;;;;;;5037033;28;20059;-78
2020/12/06 00:14:46;;;;;;;19.75;9.23;;;2.00;99.90;;;;;;5057607;28;20030;-78
2020/12/06 00:17:11;;;;;;;19.13;9.88;;;1.90;99.90;;;;;;5057438;28;20122;-78
2020/12/06 00:19:37;;;;;;;21.02;9.40;;;1.90;99.90;;;;;;5036321;28;20029;-78
2020/12/06 00:22:03;;;;;;;17.40;8.98;;;1.90;99.90;;;;;;5054837;28;20479;-77
2020/12/06 00:24:28;;;;;;;18.80;9.18;;;1.90;99.90;;;;;;5057827;28;20033;-78
2020/12/06 00:26:57;;;;;;;15.65;8.68;;;1.80;99.90;;;;;;5056745;28;20406;-78
2020/12/06 00:29:23;;;;;;;19.98;9.95;;;1.80;99.90;;;;;;5056987;28;20068;-78
2020/12/06 00:31:48;;;;;;;21.38;9.68;;;1.80;99.90;;;;;;5040262;28;20079;-78
2020/12/06 00:34:14;;;;;;;18.45;8.45;;;1.80;99.90;;;;;;5040064;28;20435;-78
2020/12/06 00:36:40;;;;;;;14.82;7.93;;;1.80;99.90;;;;;;5057692;28;20055;-78
2020/12/06 00:39:05;;;;;;;17.85;8.48;;;1.70;99.90;;;;;;5056979;28;20059;-78
2020/12/06 00:41:31;;;;;;;20.50;8.95;;;1.70;99.90;;;;;;5056705;28;20504;-78
2020/12/06 00:43:57;;;;;;;20.13;9.45;;;1.70;99.90;;;;;;5057595;28;20025;-78
2020/12/06 00:46:23;;;;;;;19.40;8.73;;;1.80;99.90;;;;;;5039676;28;20158;-78
2020/12/06 00:48:51;;;;;;;22.70;9.38;;;1.70;99.90;;;;;;5008917;28;20505;-78
2020/12/06 00:51:17;;;;;;;19.88;9.60;;;1.80;99.90;;;;;;5045133;28;20120;-79
2020/12/06 00:53:43;;;;;;;16.05;8.75;;;1.70;99.90;;;;;;5063540;28;20029;-78
2020/12/06 00:56:20;;;;;;;20.48;9.57;;;1.70;99.90;;;;;;5061463;28;20028;-78
2020/12/06 00:58:47;;;;;;;18.77;9.32;;;1.70;99.90;;;;;;5044958;28;20033;-78
2020/12/06 01:01:18;;;;;;;16.95;9.05;;;1.70;99.90;;;;;;5061204;28;20032;-78
2020/12/06 01:03:44;;;;;;;23.35;10.50;;;1.70;99.90;;;;;;5060570;28;20033;-78
2020/12/06 01:06:15;;;;;;;22.50;10.30;;;1.80;99.90;;;;;;5060553;28;20025;-77
2020/12/06 01:08:42;;;;;;;20.70;10.05;;;1.80;99.90;;;;;;5043770;28;20558;-78
2020/12/06 01:11:10;;;;;;;20.88;9.57;;;1.80;99.90;;;;;;5064276;28;20053;-78
2020/12/06 01:13:36;;;;;;;20.95;9.77;;;1.90;99.90;;;;;;5061865;28;20032;-78
2020/12/06 01:16:02;;;;;;;23.23;9.70;;;1.90;99.90;;;;;;5064248;28;20037;-78
2020/12/06 01:18:27;;;;;;;16.52;8.88;;;1.90;99.90;;;;;;5063915;28;20037;-79
2020/12/06 01:20:53;;;;;;;21.25;9.98;;;1.90;99.90;;;;;;5063508;28;20044;-78
2020/12/06 01:23:20;;;;;;;17.45;8.93;;;1.90;99.90;;;;;;5061603;28;20028;-78
2020/12/06 01:25:45;;;;;;;17.15;8.43;;;1.90;99.90;;;;;;5044073;28;20191;-78
2020/12/06 01:28:11;;;;;;;18.77;8.45;;;2.00;99.90;;;;;;5063699;28;20057;-78
2020/12/06 01:30:37;;;;;;;16.42;8.68;;;1.90;99.90;;;;;;5061312;28;20525;-79
2020/12/06 01:33:02;;;;;;;18.10;8.52;;;2.00;99.90;;;;;;5045414;28;20081;-78
2020/12/06 01:35:28;;;;;;;18.65;8.88;;;1.90;99.90;;;;;;5059203;28;20029;-78
2020/12/06 01:37:54;;;;;;;17.08;8.35;;;1.80;99.90;;;;;;5062871;28;20548;-78
2020/12/06 01:40:20;;;;;;;19.77;9.32;;;1.80;99.90;;;;;;5060457;28;20528;-78
2020/12/06 01:42:45;;;;;;;19.27;9.23;;;1.80;99.90;;;;;;5057541;28;20024;-77
2020/12/06 01:45:11;;;;;;;16.30;8.50;;;1.80;99.90;;;;;;5055031;28;20127;-78
2020/12/06 01:47:37;;;;;;;17.13;9.13;;;1.80;99.90;;;;;;5037919;28;20119;-78
2020/12/06 01:50:03;;;;;;;19.80;8.68;;;1.80;99.90;;;;;;5039410;28;20432;-78
2020/12/06 01:52:29;;;;;;;21.23;9.20;;;1.80;99.90;;;;;;5054876;28;20037;-77
2020/12/06 01:54:56;;;;;;;19.95;8.88;;;1.80;99.90;;;;;;5055098;28;20386;-78
2020/12/06 01:57:22;;;;;;;17.65;9.23;;;1.80;99.90;;;;;;5056667;28;20209;-78
2020/12/06 01:59:48;;;;;;;19.23;9.32;;;1.80;99.90;;;;;;5032874;28;20394;-78
2020/12/06 02:02:15;;;;;;;17.52;8.55;;;1.70;99.90;;;;;;5058814;28;20041;-78
2020/12/06 02:04:41;;;;;;;20.33;9.57;;;1.70;99.90;;;;;;5061720;28;20025;-78
2020/12/06 02:07:07;;;;;;;15.88;8.35;;;1.80;99.90;;;;;;5053169;28;20380;-77
2020/12/06 02:09:33;;;;;;;15.90;9.15;;;1.80;99.90;;;;;;5054480;28;20091;-78
2020/12/06 02:11:59;;;;;;;22.73;10.20;;;1.80;99.90;;;;;;5055329;28;20033;-78
2020/12/06 02:14:25;;;;;;;22.50;9.48;;;1.80;99.90;;;;;;5055338;28;20106;-78
2020/12/06 02:16:56;;;;;;;21.67;9.13;;;1.80;99.90;;;;;;5056383;28;20438;-78
2020/12/06 02:19:22;;;;;;;21.30;10.48;;;1.70;99.90;;;;;;5056889;28;20059;-78
2020/12/06 02:21:48;;;;;;;22.73;9.95;;;1.70;99.90;;;;;;5056034;28;20033;-78
2020/12/06 02:24:15;;;;;;;22.67;9.93;;;1.70;99.90;;;;;;5037942;28;20025;-78
2020/12/06 02:26:43;;;;;;;17.67;9.18;;;1.70;99.90;;;;;;5055214;28;20471;-77
2020/12/06 02:29:10;;;;;;;16.08;8.23;;;1.70;99.90;;;;;;5056235;28;20391;-78
2020/12/06 02:31:36;;;;;;;17.42;8.98;;;1.70;99.90;;;;;;5056485;28;20038;-78
2020/12/06 02:34:03;;;;;;;18.70;9.25;;;1.70;99.90;;;;;;5055789;28;20025;-78
2020/12/06 02:36:29;;;;;;;14.68;7.80;;;1.80;99.90;;;;;;5055346;28;20380;-78
2020/12/06 02:38:55;;;;;;;23.20;10.70;;;1.80;99.90;;;;;;5055438;28;20048;-78
2020/12/06 02:41:21;;;;;;;18.77;9.38;;;1.80;99.90;;;;;;5056095;28;20029;-78
2020/12/06 02:43:46;;;;;;;18.55;8.73;;;1.80;99.90;;;;;;5054858;28;20440;-78
2020/12/06 02:46:12;;;;;;;20.65;9.25;;;1.80;99.90;;;;;;5051103;28;20032;-78
2020/12/06 02:48:38;;;;;;;17.00;9.10;;;1.80;99.90;;;;;;5038791;28;20037;-78
2020/12/06 02:51:04;;;;;;;18.00;9.00;;;1.80;99.90;;;;;;5054369;28;20170;-78
2020/12/06 02:53:31;;;;;;;18.95;9.65;;;1.80;99.90;;;;;;5054871;28;20054;-78
2020/12/06 02:55:56;;;;;;;20.20;9.05;;;1.80;99.90;;;;;;5038099;28;20025;-78
2020/12/06 02:58:22;;;;;;;19.35;9.25;;;1.80;99.90;;;;;;5056319;28;20127;-78
2020/12/06 03:00:48;;;;;;;19.45;8.90;;;1.80;99.90;;;;;;5038014;28;20037;-78
2020/12/06 03:03:13;;;;;;;17.77;9.38;;;1.90;99.90;;;;;;5053827;28;20517;-78
2020/12/06 03:05:39;;;;;;;19.10;8.82;;;1.90;99.90;;;;;;5055265;28;20048;-78
2020/12/06 03:08:05;;;;;;;18.42;9.65;;;1.80;99.90;;;;;;5054912;28;20040;-78
2020/12/06 03:10:31;;;;;;;19.17;9.02;;;1.80;99.90;;;;;;5055954;28;20430;-78
2020/12/06 03:12:57;;;;;;;20.08;9.95;;;1.70;99.90;;;;;;5055038;28;20039;-78
2020/12/06 03:15:22;;;;;;;19.38;9.73;;;1.70;99.90;;;;;;5053232;28;20036;-78
2020/12/06 03:17:48;;;;;;;16.17;9.07;;;1.60;99.90;;;;;;5038314;28;20025;-77
2020/12/06 03:20:14;;;;;;;20.65;10.40;;;1.60;99.90;;;;;;5054967;28;20490;-78
2020/12/06 03:22:40;;;;;;;16.50;9.50;;;1.60;99.90;;;;;;5056044;28;20115;-78
2020/12/06 03:25:06;;;;;;;21.10;9.40;;;1.60;99.90;;;;;;5052024;28;20182;-78
2020/12/06 03:27:31;;;;;;;18.98;9.32;;;1.60;99.90;;;;;;5052333;28;20033;-78
2020/12/06 03:29:57;;;;;;;18.90;9.30;;;1.60;99.90;;;;;;5036099;28;20033;-78
2020/12/06 03:32:24;;;;;;;23.83;9.90;;;1.60;99.90;;;;;;5051662;28;20041;-78
2020/12/06 03:34:50;;;;;;;20.02;10.18;;;1.60;99.90;;;;;;5051536;28;20064;-77
2020/12/06 03:37:16;;;;;;;17.27;9.60;;;1.60;99.90;;;;;;5053154;28;20067;-78
2020/12/06 03:39:41;;;;;;;17.15;9.00;;;1.70;99.90;;;;;;5035219;28;20068;-78
2020/12/06 03:42:08;;;;;;;23.13;11.00;;;1.60;99.90;;;;;;5036091;28;20082;-78
2020/12/06 03:44:33;;;;;;;18.85;9.15;;;1.60;99.90;;;;;;5051640;28;20032;-78
2020/12/06 03:47:00;;;;;;;19.52;10.13;;;1.60;99.90;;;;;;5052392;28;20028;-78
2020/12/06 03:49:25;;;;;;;18.98;9.32;;;1.60;99.90;;;;;;5020301;28;20108;-78
2020/12/06 03:51:51;;;;;;;20.67;9.88;;;1.60;99.90;;;;;;5037041;28;20068;-78
2020/12/06 03:54:17;;;;;;;16.73;9.13;;;1.60;99.90;;;;;;5054757;28;20032;-77
2020/12/06 03:56:42;;;;;;;17.92;9.88;;;1.60;99.90;;;;;;5053115;28;20548;-78
2020/12/06 03:59:08;;;;;;;21.35;9.77;;;1.50;99.90;;;;;;5042782;28;20026;-78
2020/12/06 04:01:34;;;;;;;17.40;8.95;;;1.60;99.90;;;;;;5033009;28;20597;-78
2020/12/06 04:03:59;;;;;;;22.67;9.18;;;1.50;99.90;;;;;;5048996;28;20127;-78
2020/12/06 04:06:26;;;;;;;18.48;9.15;;;1.50;99.90;;;;;;5052703;28;20069;-78
2020/12/06 04:08:52;;;;;;;20.63;9.98;;;1.50;99.90;;;;;;5036072;28;20056;-77
2020/12/06 04:11:19;;;;;;;21.60;9.75;;;1.50;99.90;;;;;;5053838;28;20051;-78
2020/12/06 04:13:45;;;;;;;23.13;9.82;;;1.50;99.90;;;;;;5051979;28;20040;-78
2020/12/06 04:16:11;;;;;;;24.10;10.60;;;1.50;99.90;;;;;;5051356;28;20032;-78
2020/12/06 04:18:36;;;;;;;20.00;9.48;;;1.50;99.90;;;;;;5053584;28;20075;-78
2020/12/06 04:21:02;;;;;;;17.33;9.07;;;1.50;99.90;;;;;;5042511;28;20030;-78
2020/12/06 04:23:28;;;;;;;19.15;8.20;;;1.40;99.90;;;;;;5036317;28;20060;-78
2020/12/06 04:25:55;;;;;;;17.67;9.05;;;1.30;99.90;;;;;;5052410;28;20123;-78
2020/12/06 04:28:20;;;;;;;23.92;10.13;;;1.30;99.90;;;;;;5016755;28;20040;-78
2020/12/06 04:30:46;;;;;;;15.60;8.48;;;1.40;99.90;;;;;;5032559;28;20411;-78
2020/12/06 04:33:12;;;;;;;18.13;8.55;;;1.30;99.90;;;;;;5029067;28;20037;-78
2020/12/06 04:35:38;;;;;;;19.70;9.40;;;1.30;99.90;;;;;;5053615;28;20155;-78
2020/12/06 04:38:03;;;;;;;18.70;9.07;;;1.20;99.90;;;;;;5052993;28;20036;-78
2020/12/06 04:40:29;;;;;;;17.60;8.48;;;1.20;99.90;;;;;;5036235;28;20043;-78
2020/12/06 04:42:55;;;;;;;16.48;8.88;;;1.20;99.90;;;;;;5051658;28;20032;-78
2020/12/06 04:45:21;;;;;;;20.20;9.38;;;1.30;99.90;;;;;;5051689;28;20102;-78
2020/12/06 04:47:56;;;;;;;36.13;16.92;;;1.30;99.90;;;;;;5035838;28;20067;-77
2020/12/06 04:50:45;;;;;;;40.13;17.13;;;1.30;99.90;;;;;;5052276;28;20120;-78
2020/12/06 04:53:17;;;;;;;37.92;18.15;;;1.30;99.90;;;;;;5036323;28;20522;-78
2020/12/06 04:55:46;;;;;;;35.42;16.83;;;1.30;99.90;;;;;;5052774;28;20061;-78
2020/12/06 04:58:17;;;;;;;33.67;15.93;;;1.20;99.90;;;;;;5053864;28;20071;-78
2020/12/06 05:00:44;;;;;;;32.35;14.75;;;1.20;99.90;;;;;;5052114;28;20518;-78
2020/12/06 05:03:12;;;;;;;27.85;13.63;;;1.20;99.90;;;;;;5053425;28;20036;-77
2020/12/06 05:05:41;;;;;;;22.70;10.45;;;1.20;99.90;;;;;;5034004;28;20105;-78
2020/12/06 05:08:10;;;;;;;17.20;9.48;;;1.20;99.90;;;;;;5048455;28;20630;-78
2020/12/06 05:10:46;;;;;;;26.00;12.25;;;1.10;99.90;;;;;;5053237;28;20688;-78
2020/12/06 05:13:16;;;;;;;25.48;12.52;;;1.10;99.90;;;;;;5052478;28;20033;-77
2020/12/06 05:15:42;;;;;;;25.20;12.98;;;1.10;99.90;;;;;;5045965;28;20029;-78
2020/12/06 05:18:09;;;;;;;25.15;11.75;;;1.10;99.90;;;;;;5033891;28;20045;-78
2020/12/06 05:20:35;;;;;;;25.75;12.30;;;1.10;99.90;;;;;;5033083;28;20030;-77
2020/12/06 05:23:02;;;;;;;25.23;12.43;;;1.10;99.90;;;;;;5045933;28;20471;-78
2020/12/06 05:25:28;;;;;;;23.13;12.40;;;1.10;99.90;;;;;;5051134;28;20041;-78
2020/12/06 05:27:54;;;;;;;30.10;13.18;;;1.10;99.90;;;;;;5054200;28;20048;-78
2020/12/06 05:30:20;;;;;;;29.08;13.77;;;1.10;99.90;;;;;;5038547;28;20033;-77
2020/12/06 05:32:45;;;;;;;26.10;13.52;;;1.10;99.90;;;;;;5054854;28;20032;-78
2020/12/06 05:35:12;;;;;;;29.08;13.55;;;1.20;99.90;;;;;;5027032;22;20025;-88
2020/12/06 05:37:39;;;;;;;25.60;12.75;;;1.20;99.90;;;;;;5015767;28;20038;-88
2020/12/06 05:40:14;;;;;;;28.60;13.48;;;1.20;99.90;;;;;;5017482;28;20033;-88
2020/12/06 05:42:41;;;;;;;20.33;11.38;;;1.20;99.90;;;;;;5032240;28;20263;-88
2020/12/06 05:45:08;;;;;;;25.15;12.20;;;1.20;99.90;;;;;;5016137;28;20029;-89
2020/12/06 05:47:34;;;;;;;21.13;10.88;;;1.30;99.90;;;;;;5032273;28;20037;-88
2020/12/06 05:50:00;;;;;;;21.45;10.27;;;1.40;99.90;;;;;;5016747;28;20069;-89
2020/12/06 05:52:30;;;;;;;18.50;9.57;;;1.30;99.90;;;;;;5015611;28;20064;-88
2020/12/06 05:54:57;;;;;;;21.17;10.35;;;1.30;99.90;;;;;;5016795;28;20032;-88
2020/12/06 05:57:30;;;;;;;22.90;10.50;;;1.30;99.90;;;;;;5015058;28;20053;-88
2020/12/06 05:59:59;;;;;;;20.52;9.95;;;1.30;99.90;;;;;;5033707;28;20079;-89
2020/12/06 06:02:25;;;;;;;18.45;9.57;;;1.20;99.90;;;;;;5032186;28;20041;-89
2020/12/06 06:04:51;;;;;;;19.95;10.02;;;1.20;99.90;;;;;;5016754;28;20041;-88
2020/12/06 06:07:22;;;;;;;24.33;10.80;;;1.20;99.90;;;;;;5032035;28;20037;-88
2020/12/06 06:10:10;;;;;;;18.25;9.05;;;1.20;99.90;;;;;;5015237;28;20029;-89
2020/12/06 06:12:42;;;;;;;18.00;9.85;;;1.10;99.90;;;;;;5014945;28;20502;-88
2020/12/06 06:15:08;;;;;;;17.67;9.40;;;1.10;99.90;;;;;;5016683;28;20109;-88
2020/12/06 06:17:34;;;;;;;18.70;8.90;;;1.10;99.90;;;;;;5015290;28;20148;-88
2020/12/06 06:20:00;;;;;;;17.27;9.32;;;1.10;99.90;;;;;;5033342;28;20417;-87
2020/12/06 06:22:41;;;;;;;19.23;9.10;;;1.10;99.90;;;;;;5031591;28;20032;-88
2020/12/06 06:25:09;;;;;;;19.83;8.73;;;1.10;99.90;;;;;;5016369;28;20061;-89
2020/12/06 06:27:38;;;;;;;18.95;8.85;;;1.00;99.90;;;;;;5017126;28;20037;-86
2020/12/06 06:30:06;;;;;;;16.27;8.48;;;1.00;99.90;;;;;;5022313;28;20033;-86
2020/12/06 06:32:32;;;;;;;20.50;8.95;;;1.00;99.90;;;;;;4999114;28;20120;-86
2020/12/06 06:35:00;;;;;;;17.63;8.00;;;1.00;99.90;;;;;;5016453;28;20068;-86
2020/12/06 06:37:30;;;;;;;19.42;9.02;;;1.00;99.90;;;;;;5015821;28;20116;-86
2020/12/06 06:40:07;;;;;;;20.75;9.40;;;0.90;99.90;;;;;;5021887;28;20033;-86
2020/12/06 06:42:35;;;;;;;19.23;9.63;;;0.90;99.90;;;;;;5022912;28;20025;-87
2020/12/06 06:45:12;;;;;;;21.00;10.10;;;1.00;99.90;;;;;;5016041;28;20033;-86
2020/12/06 06:47:40;;;;;;;18.17;9.68;;;1.00;99.90;;;;;;5010890;28;20025;-86
2020/12/06 06:50:11;;;;;;;18.75;9.52;;;1.00;99.90;;;;;;4992620;28;20136;-86
2020/12/06 06:52:42;;;;;;;17.90;9.85;;;0.90;99.90;;;;;;5027960;28;20061;-86
2020/12/06 06:55:08;;;;;;;20.45;9.88;;;0.90;99.90;;;;;;5029248;28;20080;-86
2020/12/06 06:57:38;;;;;;;21.00;9.18;;;0.80;99.90;;;;;;5031939;28;20121;-87
2020/12/06 07:00:04;;;;;;;19.38;9.52;;;0.70;99.90;;;;;;5016157;28;20029;-86
2020/12/06 07:02:37;;;;;;;20.17;9.52;;;0.70;99.90;;;;;;5014350;28;20056;-87
2020/12/06 07:05:13;;;;;;;23.33;10.40;;;0.70;99.90;;;;;;5015794;28;20040;-87
2020/12/06 07:07:50;;;;;;;36.35;16.63;;;0.70;99.90;;;;;;5014756;28;20037;-87
2020/12/06 07:10:21;;;;;;;23.10;11.48;;;0.70;99.90;;;;;;4999487;28;20075;-87
2020/12/06 07:12:48;;;;;;;22.60;10.93;;;0.70;99.90;;;;;;5030973;28;20025;-87
2020/12/06 07:22:02;;;;;;;17.15;9.18;;;0.50;99.90;;;;;;5009042;28;20056;-75
2020/12/06 07:24:27;;;;;;;21.58;10.02;;;0.60;99.90;;;;;;5012419;28;20622;-75
2020/12/06 07:26:53;;;;;;;18.98;9.32;;;0.50;99.90;;;;;;5010234;28;20560;-75
2020/12/06 07:29:19;;;;;;;17.98;8.95;;;0.50;99.90;;;;;;5005340;28;20109;-75
2020/12/06 07:31:44;;;;;;;18.33;9.30;;;0.40;99.90;;;;;;5010112;28;20391;-75
2020/12/06 07:34:10;;;;;;;16.77;8.73;;;0.40;99.90;;;;;;5011747;28;20061;-75
2020/12/06 07:36:37;;;;;;;14.98;8.23;;;0.40;99.90;;;;;;5012337;28;20096;-75
2020/12/06 07:39:13;;;;;;;20.45;9.75;;;0.40;99.90;;;;;;5006206;28;20391;-75
2020/12/06 07:41:47;;;;;;;14.75;8.30;;;0.40;99.90;;;;;;4996626;28;20026;-75
2020/12/06 07:44:13;;;;;;;18.10;10.38;;;0.40;99.90;;;;;;5011722;28;20077;-75
2020/12/06 07:46:39;;;;;;;18.05;9.35;;;0.40;99.90;;;;;;4984531;28;20125;-75
2020/12/06 07:49:06;;;;;;;18.67;9.18;;;0.50;99.90;;;;;;4981651;28;20109;-75
2020/12/06 07:51:31;;;;;;;22.67;9.38;;;0.50;99.90;;;;;;4994734;28;20050;-75
2020/12/06 07:54:01;;;;;;;20.85;8.98;;;0.50;99.90;;;;;;4992043;28;20463;-75
2020/12/06 07:56:29;;;;;;;26.00;10.13;;;0.60;99.90;;;;;;4992383;28;20124;-75
2020/12/06 07:59:11;;;;;;;17.40;8.77;;;0.60;99.90;;;;;;5006987;28;20118;-75
2020/12/06 08:01:39;;;;;;;21.48;9.43;;;0.70;99.90;;;;;;5002371;28;20025;-75
2020/12/06 08:04:05;;;;;;;17.65;9.25;;;0.80;99.90;;;;;;5000579;28;20034;-74
2020/12/06 08:06:33;;;;;;;18.48;8.88;;;0.80;99.90;;;;;;5005594;28;20810;-74
2020/12/06 08:09:03;;;;;;;19.58;8.88;;;0.90;99.90;;;;;;4984316;28;20065;-75
2020/12/06 08:11:35;;;;;;;19.08;8.43;;;0.90;99.90;;;;;;5005857;28;20034;-75
2020/12/06 08:14:01;;;;;;;16.65;8.75;;;0.90;99.90;;;;;;5011058;28;20509;-75
2020/12/06 08:16:27;;;;;;;18.98;8.77;;;0.90;99.90;;;;;;5011276;28;20037;-75
2020/12/06 08:19:00;;;;;;;15.68;8.40;;;0.90;99.90;;;;;;5006967;28;20018;-75
2020/12/06 08:21:45;;;;;;;19.05;9.45;;;0.90;99.90;;;;;;5012964;28;20040;-75
2020/12/06 08:24:21;;;;;;;;;;;0.90;99.90;;;;;;5002820;28;20038;-75
2020/12/06 08:26:48;;;;;;;17.15;8.52;;;0.90;99.90;;;;;;5008991;28;19996;-75
2020/12/06 08:29:14;;;;;;;16.52;8.52;;;0.90;99.90;;;;;;4991920;28;20491;-75
2020/12/06 08:31:41;;;;;;;15.40;8.82;;;1.00;99.90;;;;;;5000705;28;20075;-75
2020/12/06 08:34:09;;;;;;;17.75;8.85;;;1.00;99.90;;;;;;5010940;28;20030;-75
2020/12/06 08:36:35;;;;;;;15.35;8.05;;;1.10;99.90;;;;;;4992878;28;20113;-75
2020/12/06 08:39:00;;;;;;;20.08;10.05;;;1.10;99.90;;;;;;5007295;28;20105;-75
2020/12/06 08:41:26;;;;;;;20.75;10.52;;;1.20;99.90;;;;;;5004631;28;20061;-75
2020/12/06 08:44:04;;;;;;;22.35;10.60;;;1.10;99.90;;;;;;5002591;28;20026;-75
2020/12/06 08:46:31;;;;;;;21.15;10.32;;;1.10;99.90;;;;;;5007302;28;20559;-75
2020/12/06 08:49:02;;;;;;;22.25;10.95;;;1.10;99.90;;;;;;5002614;28;20042;-75
2020/12/06 08:51:27;;;;;;;20.02;10.13;;;1.10;99.90;;;;;;5000224;28;20531;-75
2020/12/06 08:53:54;;;;;;;20.98;10.07;;;1.20;99.90;;;;;;5003053;28;20019;-75
2020/12/06 08:56:40;;;;;;;19.92;10.68;;;1.30;99.90;;;;;;5010936;28;20369;-75
2020/12/06 08:59:10;;;;;;;27.52;11.63;;;1.30;99.90;;;;;;4994510;28;20041;-75
2020/12/06 09:01:49;;;;;;;18.88;9.93;;;1.40;99.90;;;;;;5008897;28;20025;-74
2020/12/06 09:04:16;;;;;;;23.00;11.48;;;1.30;99.90;;;;;;5014205;28;20040;-75
2020/12/06 09:06:42;;;;;;;26.45;14.75;;;1.30;99.90;;;;;;4993349;28;20134;-75
2020/12/06 09:09:08;;;;;;;30.13;14.48;;;1.40;99.90;;;;;;4996948;28;20029;-75
2020/12/06 09:11:34;;;;;;;22.35;11.48;;;1.40;99.90;;;;;;5012911;28;20037;-75
2020/12/06 09:14:00;;;;;;;24.73;12.05;;;1.40;99.90;;;;;;5008244;28;20404;-73
2020/12/06 09:16:26;;;;;;;22.75;10.88;;;1.50;99.90;;;;;;5013841;28;20026;-74
2020/12/06 09:18:52;;;;;;;21.20;10.98;;;1.50;99.90;;;;;;5011058;28;20018;-75
2020/12/06 09:21:17;;;;;;;20.17;10.57;;;1.50;99.90;;;;;;5011380;28;20433;-75
2020/12/06 09:23:44;;;;;;;20.40;9.80;;;1.60;99.90;;;;;;5003671;28;20599;-75
2020/12/06 09:26:10;;;;;;;20.02;9.80;;;1.60;99.90;;;;;;4988091;28;20037;-75
2020/12/06 09:28:36;;;;;;;27.17;10.68;;;1.70;99.90;;;;;;5007415;28;20030;-74
2020/12/06 09:31:03;;;;;;;20.65;10.38;;;1.70;99.90;;;;;;5012068;28;20040;-74
2020/12/06 09:33:28;;;;;;;9.95;6.97;;;1.80;99.90;;;;;;5014097;28;20395;-74
2020/12/06 09:35:54;;;;;;;8.57;6.15;;;1.90;99.90;;;;;;5012965;28;20040;-75
2020/12/06 09:38:22;;;;;;;15.18;10.45;;;1.90;99.90;;;;;;4991804;28;20022;-74
2020/12/06 09:40:48;;;;;;;18.90;9.10;;;1.90;99.90;;;;;;5002824;28;20062;-75
2020/12/06 09:43:14;;;;;;;23.75;13.07;;;1.90;99.90;;;;;;5004478;28;20061;-75
2020/12/06 09:45:41;;;;;;;24.85;11.90;;;1.90;99.90;;;;;;4993603;28;20029;-75
2020/12/06 09:48:07;;;;;;;23.65;11.32;;;2.00;99.90;;;;;;5009403;28;20121;-75
2020/12/06 09:50:33;;;;;;;23.45;11.75;;;2.00;99.90;;;;;;5013104;28;20118;-75
2020/12/06 09:52:58;;;;;;;18.13;10.38;;;2.10;99.90;;;;;;5012787;28;20045;-75
2020/12/06 09:55:24;;;;;;;21.33;10.60;;;2.10;99.90;;;;;;4996212;28;20040;-75
2020/12/06 09:57:50;;;;;;;19.58;10.63;;;2.30;99.90;;;;;;4994710;28;20030;-75
2020/12/06 10:00:16;;;;;;;20.52;10.65;;;2.20;99.90;;;;;;5002934;28;20117;-75
2020/12/06 10:02:43;;;;;;;18.48;10.10;;;2.20;99.90;;;;;;5012051;28;20034;-75
2020/12/06 10:05:09;;;;;;;18.27;9.25;;;2.20;99.90;;;;;;5013789;28;20519;-75
2020/12/06 10:07:35;;;;;;;25.85;11.27;;;2.30;99.90;;;;;;5010962;28;20535;-75
2020/12/06 10:10:01;;;;;;;20.58;10.68;;;2.30;99.90;;;;;;5013224;28;20030;-75
2020/12/06 10:12:26;;;;;;;20.55;10.40;;;2.30;99.90;;;;;;5011980;28;20038;-75
2020/12/06 10:14:52;;;;;;;20.08;9.70;;;2.30;99.90;;;;;;5012899;28;20029;-75
2020/12/06 10:17:18;;;;;;;21.33;10.90;;;2.30;99.90;;;;;;5011652;28;20484;-75
2020/12/06 10:19:44;;;;;;;18.77;9.55;;;2.30;99.90;;;;;;5012526;28;20388;-75
2020/12/06 10:22:09;;;;;;;15.35;8.30;;;2.40;99.90;;;;;;5011843;28;20050;-75
2020/12/06 10:24:35;;;;;;;14.93;7.65;;;2.40;99.90;;;;;;4995905;28;20049;-75
2020/12/06 10:27:01;;;;;;;19.10;9.48;;;2.40;99.90;;;;;;5010848;28;20037;-75
2020/12/06 10:29:26;;;;;;;20.08;9.25;;;2.50;99.90;;;;;;5012871;28;20046;-75
2020/12/06 10:31:53;;;;;;;15.77;8.63;;;2.50;99.90;;;;;;4993865;28;20037;-75
2020/12/06 10:34:20;;;;;;;15.23;7.70;;;2.50;99.90;;;;;;5010429;28;20021;-75
2020/12/06 10:36:52;;;;;;;16.48;8.75;;;2.50;99.90;;;;;;4994218;28;20025;-75
2020/12/06 10:39:20;;;;;;;14.85;9.02;;;2.60;99.90;;;;;;5011806;28;20117;-75
2020/12/06 10:41:50;;;;;;;18.88;10.57;;;2.60;99.90;;;;;;4965887;28;20416;-75
2020/12/06 10:44:17;;;;;;;18.83;8.85;;;2.70;99.90;;;;;;5012870;28;20245;-75
2020/12/06 10:46:43;;;;;;;12.73;7.50;;;2.70;99.90;;;;;;4993762;28;20064;-75
2020/12/06 10:49:09;;;;;;;17.25;9.05;;;2.70;99.90;;;;;;4999559;28;20041;-75
2020/12/06 10:51:34;;;;;;;24.13;11.45;;;2.80;99.90;;;;;;5011108;28;20038;-75
2020/12/06 10:54:00;;;;;;;22.90;12.15;;;2.90;99.90;;;;;;5012758;28;20041;-75
2020/12/06 10:56:26;;;;;;;20.30;11.00;;;3.00;99.90;;;;;;5012661;28;20022;-75
2020/12/06 10:58:53;;;;;;;19.42;11.32;;;3.00;99.90;;;;;;5010399;28;20072;-75
2020/12/06 11:01:24;;;;;;;19.80;12.43;;;3.00;99.90;;;;;;5005460;28;20373;-75
2020/12/06 11:03:50;;;;;;;31.17;16.33;;;3.00;99.90;;;;;;5012840;28;20062;-75
2020/12/06 11:06:22;;;;;;;40.95;18.90;;;3.00;99.90;;;;;;5010496;28;20060;-76
2020/12/06 11:08:48;;;;;;;33.88;16.23;;;3.10;99.90;;;;;;5004722;28;20092;-75
2020/12/06 11:11:14;;;;;;;24.05;12.52;;;3.10;99.90;;;;;;5010751;28;20064;-75
2020/12/06 11:13:40;;;;;;;26.85;14.32;;;3.10;99.90;;;;;;5007265;28;20039;-75
2020/12/06 11:16:07;;;;;;;24.70;11.98;;;3.10;99.90;;;;;;5006173;28;20026;-75
2020/12/06 11:18:33;;;;;;;24.90;11.90;;;3.10;99.90;;;;;;4986087;28;20137;-75
2020/12/06 11:20:59;;;;;;;21.60;11.27;;;3.10;99.90;;;;;;4986687;28;20088;-75
2020/12/06 11:23:25;;;;;;;21.00;10.65;;;3.10;99.90;;;;;;5000290;28;20048;-75
2020/12/06 11:25:51;;;;;;;20.10;10.93;;;3.10;99.90;;;;;;4994654;28;20071;-75
2020/12/06 11:28:16;;;;;;;23.23;12.07;;;3.00;99.90;;;;;;5004794;28;20447;-74
2020/12/06 11:30:42;;;;;;;22.42;10.20;;;3.10;99.90;;;;;;5006373;28;20030;-74
2020/12/06 11:33:08;;;;;;;15.93;9.07;;;3.10;99.90;;;;;;5002980;28;20034;-75
2020/12/06 11:35:34;;;;;;;16.65;8.55;;;3.10;99.90;;;;;;4982576;28;20034;-75
2020/12/06 11:37:59;;;;;;;15.55;8.60;;;3.20;99.90;;;;;;4994461;28;20026;-75
2020/12/06 11:40:25;;;;;;;19.20;10.82;;;3.20;99.90;;;;;;5000522;28;20030;-75
2020/12/06 11:42:51;;;;;;;21.98;11.48;;;3.10;99.90;;;;;;4997063;28;20066;-74
2020/12/06 11:45:16;;;;;;;23.75;11.25;;;3.30;99.90;;;;;;4995462;28;20057;-75
2020/12/06 11:47:42;;;;;;;25.75;11.77;;;3.30;99.90;;;;;;5002425;28;20034;-75
2020/12/06 11:50:08;;;;;;;24.00;12.15;;;3.30;99.90;;;;;;5005059;28;20022;-75
2020/12/06 11:52:34;;;;;;;23.45;11.90;;;3.20;99.90;;;;;;4983014;28;20049;-75
2020/12/06 11:55:00;;;;;;;20.15;10.80;;;3.20;99.90;;;;;;4996908;28;20469;-75
2020/12/06 11:57:26;;;;;;;17.75;8.43;;;3.20;99.90;;;;;;5002019;28;20030;-74
2020/12/06 11:59:52;;;;;;;18.00;8.68;;;3.20;99.90;;;;;;5002845;28;20056;-75
2020/12/06 12:02:18;;;;;;;14.43;7.95;;;3.20;99.90;;;;;;4997431;28;20040;-75
2020/12/06 12:04:43;;;;;;;15.45;8.05;;;3.20;99.90;;;;;;5002433;28;20396;-75
2020/12/06 12:07:09;;;;;;;16.85;8.35;;;3.20;99.90;;;;;;5004905;28;20041;-74
2020/12/06 12:09:35;;;;;;;17.50;8.80;;;3.20;99.90;;;;;;4987902;28;20037;-73
2020/12/06 12:12:01;;;;;;;18.25;9.65;;;3.20;99.90;;;;;;4994383;28;20044;-75
2020/12/06 12:14:26;;;;;;;19.77;9.98;;;3.30;99.90;;;;;;5007660;28;20033;-74
2020/12/06 12:16:52;;;;;;;17.25;8.88;;;3.30;99.90;;;;;;5003710;28;20029;-75
2020/12/06 12:19:18;;;;;;;21.17;11.15;;;3.30;99.90;;;;;;4992839;28;20059;-74
2020/12/06 12:21:44;;;;;;;21.77;11.23;;;3.30;99.90;;;;;;5006031;28;20041;-74
2020/12/06 12:24:09;;;;;;;23.33;11.05;;;3.30;99.90;;;;;;4991866;28;20030;-75
2020/12/06 12:26:35;;;;;;;21.75;10.82;;;3.30;99.90;;;;;;4992747;28;20089;-74
2020/12/06 12:29:01;;;;;;;20.42;11.32;;;3.30;99.90;;;;;;5001930;28;20092;-75
2020/12/06 12:31:28;;;;;;;23.40;12.50;;;3.20;99.90;;;;;;5003442;28;20041;-74
2020/12/06 12:33:54;;;;;;;20.80;11.65;;;3.20;99.90;;;;;;5005554;28;20384;-73
2020/12/06 12:36:20;;;;;;;21.20;11.18;;;3.30;99.90;;;;;;4985624;28;20045;-74
2020/12/06 12:38:46;;;;;;;22.63;11.35;;;3.20;99.90;;;;;;5005005;28;20077;-75
2020/12/06 12:41:13;;;;;;;27.33;13.23;;;3.20;99.90;;;;;;5009756;28;20034;-74
2020/12/06 12:43:39;;;;;;;26.63;13.60;;;3.20;99.90;;;;;;4994374;28;20033;-75
2020/12/06 12:46:05;;;;;;;27.30;14.20;;;3.30;99.90;;;;;;5008776;28;20052;-74
2020/12/06 12:48:31;;;;;;;28.38;13.23;;;3.40;99.90;;;;;;4995012;28;20068;-74